sensor_id;sensor_type;location;lat;lon;timestamp;P1;durP1;ratioP1;P2;durP2;ratioP2
74373;SDS011;62809;51.090;-115.358;2022-10-16T00:01:43;0.80;;;0.60;;
74373;SDS011;62809;51.090;-115.358;2022-10-16T00:04:10;1.60;;;0.90;;
74373;SDS011;62809;51.090;-115.358;2022-10-16T00:06:39;0.70;;;0.70;;
74373;SDS011;62809;51.090;-115.358;2022-10-16T00:09:07;1.50;;;0.70;;
74373;SDS011;62809;51.090;-115.358;2022-10-16T00:11:36;1.20;;;0.80;;
74373;SDS011;62809;51.090;-115.358;2022-10-16T00:14:09;1.60;;;0.80;;
74373;SDS011;62809;51.090;-115.358;2022-10-16T00:16:38;1.00;;;0.80;;
74373;SDS011;62809;51.090;-115.358;2022-10-16T00:19:07;1.40;;;0.90;;
74373;SDS011;62809;51.090;-115.358;2022-10-16T00:21:36;1.30;;;1.00;;
74373;SDS011;62809;51.090;-115.358;2022-10-16T00:24:06;1.60;;;0.90;;
74373;SDS011;62809;51.090;-115.358;2022-10-16T00:26:36;1.70;;;0.90;;
74373;SDS011;62809;51.090;-115.358;2022-10-16T00:29:06;1.50;;;1.00;;
74373;SDS011;62809;51.090;-115.358;2022-10-16T00:31:36;1.20;;;0.90;;
74373;SDS011;62809;51.090;-115.358;2022-10-16T00:34:03;1.00;;;0.80;;
74373;SDS011;62809;51.090;-115.358;2022-10-16T00:36:30;1.50;;;1.00;;
74373;SDS011;62809;51.090;-115.358;2022-10-16T00:38:58;1.50;;;0.80;;
74373;SDS011;62809;51.090;-115.358;2022-10-16T00:41:26;1.40;;;0.90;;
74373;SDS011;62809;51.090;-115.358;2022-10-16T00:43:57;1.40;;;0.90;;
74373;SDS011;62809;51.090;-115.358;2022-10-16T00:46:38;1.50;;;1.00;;
74373;SDS011;62809;51.090;-115.358;2022-10-16T00:49:12;1.60;;;1.00;;
74373;SDS011;62809;51.090;-115.358;2022-10-16T00:51:45;1.20;;;0.80;;
74373;SDS011;62809;51.090;-115.358;2022-10-16T00:54:29;1.70;;;1.00;;
74373;SDS011;62809;51.090;-115.358;2022-10-16T00:57:01;1.80;;;1.10;;
74373;SDS011;62809;51.090;-115.358;2022-10-16T00:59:36;2.00;;;1.10;;
74373;SDS011;62809;51.090;-115.358;2022-10-16T01:02:10;1.40;;;1.10;;
74373;SDS011;62809;51.090;-115.358;2022-10-16T01:04:44;1.60;;;1.10;;
74373;SDS011;62809;51.090;-115.358;2022-10-16T01:07:47;2.00;;;1.10;;
74373;SDS011;62809;51.090;-115.358;2022-10-16T01:13:11;1.50;;;1.00;;
74373;SDS011;62809;51.090;-115.358;2022-10-16T01:16:02;2.10;;;1.30;;
74373;SDS011;62809;51.090;-115.358;2022-10-16T01:18:45;2.60;;;1.30;;
74373;SDS011;62809;51.090;-115.358;2022-10-16T01:21:29;1.90;;;1.20;;
74373;SDS011;62809;51.090;-115.358;2022-10-16T01:35:26;2.60;;;1.50;;
74373;SDS011;62809;51.090;-115.358;2022-10-16T01:40:52;3.10;;;1.80;;
74373;SDS011;62809;51.090;-115.358;2022-10-16T01:43:35;2.70;;;1.60;;
74373;SDS011;62809;51.090;-115.358;2022-10-16T01:46:08;3.70;;;1.50;;
74373;SDS011;62809;51.090;-115.358;2022-10-16T01:48:39;3.00;;;1.50;;
74373;SDS011;62809;51.090;-115.358;2022-10-16T01:51:10;3.00;;;1.50;;
74373;SDS011;62809;51.090;-115.358;2022-10-16T01:53:41;2.80;;;1.60;;
74373;SDS011;62809;51.090;-115.358;2022-10-16T01:56:12;2.50;;;1.50;;
74373;SDS011;62809;51.090;-115.358;2022-10-16T01:58:46;2.70;;;1.40;;
74373;SDS011;62809;51.090;-115.358;2022-10-16T02:01:22;4.10;;;1.80;;
74373;SDS011;62809;51.090;-115.358;2022-10-16T02:03:54;2.40;;;1.40;;
74373;SDS011;62809;51.090;-115.358;2022-10-16T02:06:25;2.60;;;1.50;;
74373;SDS011;62809;51.090;-115.358;2022-10-16T02:08:53;2.50;;;1.40;;
74373;SDS011;62809;51.090;-115.358;2022-10-16T02:11:21;2.60;;;1.60;;
74373;SDS011;62809;51.090;-115.358;2022-10-16T02:13:57;3.50;;;1.60;;
74373;SDS011;62809;51.090;-115.358;2022-10-16T02:16:46;2.70;;;1.60;;
74373;SDS011;62809;51.090;-115.358;2022-10-16T02:19:15;2.80;;;1.80;;
74373;SDS011;62809;51.090;-115.358;2022-10-16T02:22:00;2.30;;;1.50;;
74373;SDS011;62809;51.090;-115.358;2022-10-16T02:24:38;2.80;;;1.50;;
74373;SDS011;62809;51.090;-115.358;2022-10-16T02:27:32;3.50;;;1.60;;
74373;SDS011;62809;51.090;-115.358;2022-10-16T02:30:31;2.80;;;1.60;;
74373;SDS011;62809;51.090;-115.358;2022-10-16T02:33:03;2.50;;;1.60;;
74373;SDS011;62809;51.090;-115.358;2022-10-16T02:35:34;3.50;;;1.80;;
74373;SDS011;62809;51.090;-115.358;2022-10-16T02:38:02;3.00;;;1.60;;
74373;SDS011;62809;51.090;-115.358;2022-10-16T02:40:30;2.60;;;1.50;;
74373;SDS011;62809;51.090;-115.358;2022-10-16T02:42:58;3.50;;;1.90;;
74373;SDS011;62809;51.090;-115.358;2022-10-16T02:45:25;3.20;;;1.70;;
74373;SDS011;62809;51.090;-115.358;2022-10-16T02:47:53;3.20;;;1.60;;
74373;SDS011;62809;51.090;-115.358;2022-10-16T02:50:21;2.90;;;1.60;;
74373;SDS011;62809;51.090;-115.358;2022-10-16T02:52:50;2.70;;;1.50;;
74373;SDS011;62809;51.090;-115.358;2022-10-16T02:55:19;2.60;;;1.40;;
74373;SDS011;62809;51.090;-115.358;2022-10-16T02:57:47;3.20;;;1.60;;
74373;SDS011;62809;51.090;-115.358;2022-10-16T03:00:16;2.60;;;1.60;;
74373;SDS011;62809;51.090;-115.358;2022-10-16T03:02:43;2.30;;;1.40;;
74373;SDS011;62809;51.090;-115.358;2022-10-16T03:05:12;3.10;;;1.50;;
74373;SDS011;62809;51.090;-115.358;2022-10-16T03:07:40;2.70;;;1.50;;
74373;SDS011;62809;51.090;-115.358;2022-10-16T03:10:08;3.10;;;1.60;;
74373;SDS011;62809;51.090;-115.358;2022-10-16T03:12:35;3.20;;;1.70;;
74373;SDS011;62809;51.090;-115.358;2022-10-16T03:15:06;2.30;;;1.50;;
74373;SDS011;62809;51.090;-115.358;2022-10-16T03:17:33;2.70;;;1.50;;
74373;SDS011;62809;51.090;-115.358;2022-10-16T03:20:03;2.10;;;1.40;;
74373;SDS011;62809;51.090;-115.358;2022-10-16T03:22:30;2.60;;;1.60;;
74373;SDS011;62809;51.090;-115.358;2022-10-16T03:24:57;3.00;;;1.70;;
74373;SDS011;62809;51.090;-115.358;2022-10-16T03:27:27;3.10;;;1.60;;
74373;SDS011;62809;51.090;-115.358;2022-10-16T03:29:54;2.40;;;1.50;;
74373;SDS011;62809;51.090;-115.358;2022-10-16T03:32:23;2.80;;;1.50;;
74373;SDS011;62809;51.090;-115.358;2022-10-16T03:34:51;2.70;;;1.60;;
74373;SDS011;62809;51.090;-115.358;2022-10-16T03:37:20;2.90;;;1.50;;
74373;SDS011;62809;51.090;-115.358;2022-10-16T03:39:47;3.00;;;1.50;;
74373;SDS011;62809;51.090;-115.358;2022-10-16T03:42:15;3.30;;;1.70;;
74373;SDS011;62809;51.090;-115.358;2022-10-16T03:44:43;2.90;;;1.60;;
74373;SDS011;62809;51.090;-115.358;2022-10-16T03:47:11;2.40;;;1.40;;
74373;SDS011;62809;51.090;-115.358;2022-10-16T03:49:38;3.10;;;1.50;;
74373;SDS011;62809;51.090;-115.358;2022-10-16T03:52:07;2.10;;;1.40;;
74373;SDS011;62809;51.090;-115.358;2022-10-16T03:54:34;3.20;;;1.70;;
74373;SDS011;62809;51.090;-115.358;2022-10-16T03:57:02;3.60;;;1.70;;
74373;SDS011;62809;51.090;-115.358;2022-10-16T03:59:29;3.00;;;1.50;;
74373;SDS011;62809;51.090;-115.358;2022-10-16T04:01:57;2.40;;;1.40;;
74373;SDS011;62809;51.090;-115.358;2022-10-16T04:04:25;2.80;;;1.60;;
74373;SDS011;62809;51.090;-115.358;2022-10-16T04:06:53;2.90;;;1.30;;
74373;SDS011;62809;51.090;-115.358;2022-10-16T04:09:24;2.80;;;1.90;;
74373;SDS011;62809;51.090;-115.358;2022-10-16T04:11:53;2.40;;;1.50;;
74373;SDS011;62809;51.090;-115.358;2022-10-16T04:14:20;2.60;;;1.50;;
74373;SDS011;62809;51.090;-115.358;2022-10-16T04:16:48;2.80;;;1.40;;
74373;SDS011;62809;51.090;-115.358;2022-10-16T04:19:15;2.60;;;1.50;;
74373;SDS011;62809;51.090;-115.358;2022-10-16T04:21:42;2.40;;;1.40;;
74373;SDS011;62809;51.090;-115.358;2022-10-16T04:24:12;3.60;;;1.70;;
74373;SDS011;62809;51.090;-115.358;2022-10-16T04:26:41;3.00;;;1.70;;
74373;SDS011;62809;51.090;-115.358;2022-10-16T04:29:08;3.00;;;1.80;;
74373;SDS011;62809;51.090;-115.358;2022-10-16T04:31:35;2.90;;;1.50;;
74373;SDS011;62809;51.090;-115.358;2022-10-16T04:34:02;2.60;;;1.40;;
74373;SDS011;62809;51.090;-115.358;2022-10-16T04:36:29;3.40;;;1.80;;
74373;SDS011;62809;51.090;-115.358;2022-10-16T04:38:59;2.10;;;1.50;;
74373;SDS011;62809;51.090;-115.358;2022-10-16T04:41:26;2.80;;;1.60;;
74373;SDS011;62809;51.090;-115.358;2022-10-16T04:43:53;3.40;;;1.30;;
74373;SDS011;62809;51.090;-115.358;2022-10-16T04:46:22;2.70;;;1.30;;
74373;SDS011;62809;51.090;-115.358;2022-10-16T04:48:52;3.20;;;1.70;;
74373;SDS011;62809;51.090;-115.358;2022-10-16T04:51:21;2.30;;;1.40;;
74373;SDS011;62809;51.090;-115.358;2022-10-16T04:53:48;2.90;;;1.40;;
74373;SDS011;62809;51.090;-115.358;2022-10-16T04:56:18;2.30;;;1.40;;
74373;SDS011;62809;51.090;-115.358;2022-10-16T04:58:48;2.90;;;1.60;;
74373;SDS011;62809;51.090;-115.358;2022-10-16T05:01:15;2.20;;;1.40;;
74373;SDS011;62809;51.090;-115.358;2022-10-16T05:03:42;2.30;;;1.20;;
74373;SDS011;62809;51.090;-115.358;2022-10-16T05:06:09;2.60;;;1.30;;
74373;SDS011;62809;51.090;-115.358;2022-10-16T05:08:40;2.90;;;1.30;;
74373;SDS011;62809;51.090;-115.358;2022-10-16T05:11:07;2.70;;;1.40;;
74373;SDS011;62809;51.090;-115.358;2022-10-16T05:13:34;2.30;;;1.30;;
74373;SDS011;62809;51.090;-115.358;2022-10-16T05:16:01;2.00;;;1.30;;
74373;SDS011;62809;51.090;-115.358;2022-10-16T05:18:28;2.70;;;1.60;;
74373;SDS011;62809;51.090;-115.358;2022-10-16T05:20:55;3.10;;;1.50;;
74373;SDS011;62809;51.090;-115.358;2022-10-16T05:23:24;2.70;;;1.40;;
74373;SDS011;62809;51.090;-115.358;2022-10-16T05:25:54;2.00;;;1.20;;
74373;SDS011;62809;51.090;-115.358;2022-10-16T05:28:28;2.20;;;1.30;;
74373;SDS011;62809;51.090;-115.358;2022-10-16T05:31:03;2.20;;;1.20;;
74373;SDS011;62809;51.090;-115.358;2022-10-16T05:33:31;2.60;;;1.40;;
74373;SDS011;62809;51.090;-115.358;2022-10-16T05:36:03;2.30;;;1.40;;
74373;SDS011;62809;51.090;-115.358;2022-10-16T05:38:35;2.10;;;1.30;;
74373;SDS011;62809;51.090;-115.358;2022-10-16T05:41:04;1.70;;;1.20;;
74373;SDS011;62809;51.090;-115.358;2022-10-16T05:43:32;2.50;;;1.40;;
74373;SDS011;62809;51.090;-115.358;2022-10-16T05:46:04;1.40;;;1.10;;
74373;SDS011;62809;51.090;-115.358;2022-10-16T05:48:33;2.10;;;1.20;;
74373;SDS011;62809;51.090;-115.358;2022-10-16T05:51:05;2.40;;;1.10;;
74373;SDS011;62809;51.090;-115.358;2022-10-16T05:53:38;2.20;;;1.30;;
74373;SDS011;62809;51.090;-115.358;2022-10-16T05:56:06;3.20;;;1.30;;
74373;SDS011;62809;51.090;-115.358;2022-10-16T05:58:37;2.00;;;1.10;;
74373;SDS011;62809;51.090;-115.358;2022-10-16T06:01:14;1.80;;;1.10;;
74373;SDS011;62809;51.090;-115.358;2022-10-16T06:03:44;2.40;;;1.30;;
74373;SDS011;62809;51.090;-115.358;2022-10-16T06:06:13;1.70;;;1.00;;
74373;SDS011;62809;51.090;-115.358;2022-10-16T06:08:43;1.50;;;1.00;;
74373;SDS011;62809;51.090;-115.358;2022-10-16T06:11:16;2.40;;;1.20;;
74373;SDS011;62809;51.090;-115.358;2022-10-16T06:13:49;2.00;;;1.10;;
74373;SDS011;62809;51.090;-115.358;2022-10-16T06:16:20;1.50;;;0.90;;
74373;SDS011;62809;51.090;-115.358;2022-10-16T06:18:47;1.70;;;1.00;;
74373;SDS011;62809;51.090;-115.358;2022-10-16T06:21:19;1.50;;;1.00;;
74373;SDS011;62809;51.090;-115.358;2022-10-16T06:23:48;2.00;;;1.20;;
74373;SDS011;62809;51.090;-115.358;2022-10-16T06:26:18;1.60;;;1.00;;
74373;SDS011;62809;51.090;-115.358;2022-10-16T06:28:47;1.80;;;1.10;;
74373;SDS011;62809;51.090;-115.358;2022-10-16T06:31:15;1.50;;;1.10;;
74373;SDS011;62809;51.090;-115.358;2022-10-16T06:33:43;2.00;;;1.10;;
74373;SDS011;62809;51.090;-115.358;2022-10-16T06:36:17;1.70;;;1.10;;
74373;SDS011;62809;51.090;-115.358;2022-10-16T06:38:46;1.50;;;1.00;;
74373;SDS011;62809;51.090;-115.358;2022-10-16T06:41:18;1.90;;;1.00;;
74373;SDS011;62809;51.090;-115.358;2022-10-16T06:43:47;2.10;;;1.20;;
74373;SDS011;62809;51.090;-115.358;2022-10-16T06:46:20;1.60;;;0.90;;
74373;SDS011;62809;51.090;-115.358;2022-10-16T06:48:49;1.80;;;1.20;;
74373;SDS011;62809;51.090;-115.358;2022-10-16T06:51:21;1.90;;;1.00;;
74373;SDS011;62809;51.090;-115.358;2022-10-16T06:53:52;1.80;;;1.00;;
74373;SDS011;62809;51.090;-115.358;2022-10-16T06:56:22;2.20;;;1.10;;
74373;SDS011;62809;51.090;-115.358;2022-10-16T06:58:56;1.30;;;0.90;;
74373;SDS011;62809;51.090;-115.358;2022-10-16T07:01:25;3.20;;;0.90;;
74373;SDS011;62809;51.090;-115.358;2022-10-16T07:03:54;1.70;;;0.90;;
74373;SDS011;62809;51.090;-115.358;2022-10-16T07:06:26;1.60;;;1.00;;
74373;SDS011;62809;51.090;-115.358;2022-10-16T07:08:53;1.40;;;0.80;;
74373;SDS011;62809;51.090;-115.358;2022-10-16T07:11:22;1.60;;;1.00;;
74373;SDS011;62809;51.090;-115.358;2022-10-16T07:13:52;2.90;;;1.10;;
74373;SDS011;62809;51.090;-115.358;2022-10-16T07:16:21;1.20;;;0.90;;
74373;SDS011;62809;51.090;-115.358;2022-10-16T07:18:51;1.20;;;0.80;;
74373;SDS011;62809;51.090;-115.358;2022-10-16T07:21:24;1.70;;;0.90;;
74373;SDS011;62809;51.090;-115.358;2022-10-16T07:24:00;1.50;;;0.80;;
74373;SDS011;62809;51.090;-115.358;2022-10-16T07:26:30;1.70;;;1.00;;
74373;SDS011;62809;51.090;-115.358;2022-10-16T07:29:01;1.20;;;0.80;;
74373;SDS011;62809;51.090;-115.358;2022-10-16T07:31:29;1.50;;;1.00;;
74373;SDS011;62809;51.090;-115.358;2022-10-16T07:33:58;1.70;;;0.90;;
74373;SDS011;62809;51.090;-115.358;2022-10-16T07:36:26;2.50;;;1.00;;
74373;SDS011;62809;51.090;-115.358;2022-10-16T07:38:53;1.50;;;0.90;;
74373;SDS011;62809;51.090;-115.358;2022-10-16T07:41:21;1.50;;;0.80;;
74373;SDS011;62809;51.090;-115.358;2022-10-16T07:43:50;1.50;;;0.90;;
74373;SDS011;62809;51.090;-115.358;2022-10-16T07:46:19;2.00;;;1.00;;
74373;SDS011;62809;51.090;-115.358;2022-10-16T07:48:47;1.80;;;0.80;;
74373;SDS011;62809;51.090;-115.358;2022-10-16T07:51:17;1.20;;;0.80;;
74373;SDS011;62809;51.090;-115.358;2022-10-16T07:53:47;1.30;;;0.90;;
74373;SDS011;62809;51.090;-115.358;2022-10-16T07:56:15;1.40;;;0.90;;
74373;SDS011;62809;51.090;-115.358;2022-10-16T07:58:47;1.50;;;0.90;;
74373;SDS011;62809;51.090;-115.358;2022-10-16T08:01:16;1.40;;;0.80;;
74373;SDS011;62809;51.090;-115.358;2022-10-16T08:03:46;1.30;;;0.90;;
74373;SDS011;62809;51.090;-115.358;2022-10-16T08:06:18;1.70;;;0.80;;
74373;SDS011;62809;51.090;-115.358;2022-10-16T08:08:47;1.40;;;0.80;;
74373;SDS011;62809;51.090;-115.358;2022-10-16T08:11:17;2.00;;;0.90;;
74373;SDS011;62809;51.090;-115.358;2022-10-16T08:13:46;1.80;;;0.80;;
74373;SDS011;62809;51.090;-115.358;2022-10-16T08:16:13;1.60;;;0.80;;
74373;SDS011;62809;51.090;-115.358;2022-10-16T08:18:41;1.60;;;0.90;;
74373;SDS011;62809;51.090;-115.358;2022-10-16T08:21:17;2.50;;;1.00;;
74373;SDS011;62809;51.090;-115.358;2022-10-16T08:23:46;1.70;;;0.90;;
74373;SDS011;62809;51.090;-115.358;2022-10-16T08:26:15;1.10;;;0.70;;
74373;SDS011;62809;51.090;-115.358;2022-10-16T08:28:45;1.40;;;0.70;;
74373;SDS011;62809;51.090;-115.358;2022-10-16T08:31:16;1.80;;;0.80;;
74373;SDS011;62809;51.090;-115.358;2022-10-16T08:33:44;1.50;;;0.90;;
74373;SDS011;62809;51.090;-115.358;2022-10-16T08:36:17;1.30;;;0.70;;
74373;SDS011;62809;51.090;-115.358;2022-10-16T08:38:50;1.10;;;0.70;;
74373;SDS011;62809;51.090;-115.358;2022-10-16T08:41:28;1.40;;;0.70;;
74373;SDS011;62809;51.090;-115.358;2022-10-16T08:49:59;1.60;;;0.80;;
74373;SDS011;62809;51.090;-115.358;2022-10-16T08:52:39;1.00;;;0.70;;
74373;SDS011;62809;51.090;-115.358;2022-10-16T08:58:00;1.30;;;0.80;;
74373;SDS011;62809;51.090;-115.358;2022-10-16T09:00:35;1.60;;;0.90;;
74373;SDS011;62809;51.090;-115.358;2022-10-16T09:11:45;2.30;;;0.90;;
74373;SDS011;62809;51.090;-115.358;2022-10-16T09:20:36;1.60;;;0.80;;
74373;SDS011;62809;51.090;-115.358;2022-10-16T09:23:18;1.30;;;0.70;;
74373;SDS011;62809;51.090;-115.358;2022-10-16T09:25:51;1.20;;;0.80;;
74373;SDS011;62809;51.090;-115.358;2022-10-16T09:28:20;1.50;;;1.00;;
74373;SDS011;62809;51.090;-115.358;2022-10-16T09:30:48;1.60;;;0.80;;
74373;SDS011;62809;51.090;-115.358;2022-10-16T09:33:20;1.60;;;0.70;;
74373;SDS011;62809;51.090;-115.358;2022-10-16T09:35:52;2.00;;;0.80;;
74373;SDS011;62809;51.090;-115.358;2022-10-16T09:41:00;1.40;;;0.90;;
74373;SDS011;62809;51.090;-115.358;2022-10-16T09:49:04;1.00;;;0.60;;
74373;SDS011;62809;51.090;-115.358;2022-10-16T09:51:47;1.00;;;0.70;;
74373;SDS011;62809;51.090;-115.358;2022-10-16T09:54:16;1.20;;;0.80;;
74373;SDS011;62809;51.090;-115.358;2022-10-16T09:56:45;1.10;;;0.70;;
74373;SDS011;62809;51.090;-115.358;2022-10-16T09:59:19;1.70;;;0.80;;
74373;SDS011;62809;51.090;-115.358;2022-10-16T10:01:54;1.30;;;0.70;;
74373;SDS011;62809;51.090;-115.358;2022-10-16T10:04:23;1.50;;;0.80;;
74373;SDS011;62809;51.090;-115.358;2022-10-16T10:06:57;1.40;;;0.70;;
74373;SDS011;62809;51.090;-115.358;2022-10-16T10:12:14;2.20;;;0.90;;
74373;SDS011;62809;51.090;-115.358;2022-10-16T10:14:56;1.50;;;0.60;;
74373;SDS011;62809;51.090;-115.358;2022-10-16T10:17:30;1.10;;;0.60;;
74373;SDS011;62809;51.090;-115.358;2022-10-16T10:20:25;1.00;;;0.70;;
74373;SDS011;62809;51.090;-115.358;2022-10-16T10:22:54;1.50;;;0.70;;
74373;SDS011;62809;51.090;-115.358;2022-10-16T10:31:12;1.40;;;0.70;;
74373;SDS011;62809;51.090;-115.358;2022-10-16T10:40:39;1.00;;;0.70;;
74373;SDS011;62809;51.090;-115.358;2022-10-16T10:43:47;1.00;;;0.70;;
74373;SDS011;62809;51.090;-115.358;2022-10-16T10:49:16;0.80;;;0.60;;
74373;SDS011;62809;51.090;-115.358;2022-10-16T10:52:22;0.70;;;0.60;;
74373;SDS011;62809;51.090;-115.358;2022-10-16T10:55:20;0.80;;;0.60;;
74373;SDS011;62809;51.090;-115.358;2022-10-16T11:01:14;0.80;;;0.60;;
74373;SDS011;62809;51.090;-115.358;2022-10-16T11:09:42;1.10;;;0.60;;
74373;SDS011;62809;51.090;-115.358;2022-10-16T11:12:30;0.70;;;0.60;;
74373;SDS011;62809;51.090;-115.358;2022-10-16T11:18:07;0.70;;;0.50;;
74373;SDS011;62809;51.090;-115.358;2022-10-16T11:20:47;1.60;;;0.70;;
74373;SDS011;62809;51.090;-115.358;2022-10-16T11:23:24;1.50;;;0.70;;
74373;SDS011;62809;51.090;-115.358;2022-10-16T11:26:04;1.20;;;0.60;;
74373;SDS011;62809;51.090;-115.358;2022-10-16T11:28:46;0.90;;;0.60;;
74373;SDS011;62809;51.090;-115.358;2022-10-16T11:31:28;1.00;;;0.50;;
74373;SDS011;62809;51.090;-115.358;2022-10-16T11:39:30;0.60;;;0.50;;
74373;SDS011;62809;51.090;-115.358;2022-10-16T11:42:22;0.70;;;0.50;;
74373;SDS011;62809;51.090;-115.358;2022-10-16T11:48:20;0.90;;;0.60;;
74373;SDS011;62809;51.090;-115.358;2022-10-16T11:51:17;0.70;;;0.50;;
74373;SDS011;62809;51.090;-115.358;2022-10-16T11:56:50;0.90;;;0.50;;
74373;SDS011;62809;51.090;-115.358;2022-10-16T11:59:32;1.00;;;0.70;;
74373;SDS011;62809;51.090;-115.358;2022-10-16T12:02:27;0.70;;;0.50;;
74373;SDS011;62809;51.090;-115.358;2022-10-16T12:05:15;1.50;;;0.60;;
74373;SDS011;62809;51.090;-115.358;2022-10-16T12:10:41;1.10;;;0.60;;
74373;SDS011;62809;51.090;-115.358;2022-10-16T12:13:32;0.50;;;0.50;;
74373;SDS011;62809;51.090;-115.358;2022-10-16T12:18:43;1.00;;;0.60;;
74373;SDS011;62809;51.090;-115.358;2022-10-16T12:21:13;1.30;;;0.60;;
74373;SDS011;62809;51.090;-115.358;2022-10-16T12:23:52;1.00;;;0.70;;
74373;SDS011;62809;51.090;-115.358;2022-10-16T12:26:27;0.80;;;0.70;;
74373;SDS011;62809;51.090;-115.358;2022-10-16T12:32:06;1.10;;;0.60;;
74373;SDS011;62809;51.090;-115.358;2022-10-16T12:34:53;0.70;;;0.50;;
74373;SDS011;62809;51.090;-115.358;2022-10-16T12:37:35;0.90;;;0.50;;
74373;SDS011;62809;51.090;-115.358;2022-10-16T12:40:28;0.80;;;0.60;;
74373;SDS011;62809;51.090;-115.358;2022-10-16T12:42:58;0.70;;;0.50;;
74373;SDS011;62809;51.090;-115.358;2022-10-16T12:45:37;0.60;;;0.50;;
74373;SDS011;62809;51.090;-115.358;2022-10-16T12:48:21;0.80;;;0.50;;
74373;SDS011;62809;51.090;-115.358;2022-10-16T12:50:48;0.80;;;0.50;;
74373;SDS011;62809;51.090;-115.358;2022-10-16T12:53:20;0.70;;;0.60;;
74373;SDS011;62809;51.090;-115.358;2022-10-16T12:56:01;0.90;;;0.50;;
74373;SDS011;62809;51.090;-115.358;2022-10-16T12:58:46;1.50;;;0.50;;
74373;SDS011;62809;51.090;-115.358;2022-10-16T13:04:39;0.80;;;0.50;;
74373;SDS011;62809;51.090;-115.358;2022-10-16T13:07:27;1.00;;;0.60;;
74373;SDS011;62809;51.090;-115.358;2022-10-16T13:10:22;1.00;;;0.60;;
74373;SDS011;62809;51.090;-115.358;2022-10-16T13:16:01;0.90;;;0.50;;
74373;SDS011;62809;51.090;-115.358;2022-10-16T13:27:54;0.80;;;0.50;;
74373;SDS011;62809;51.090;-115.358;2022-10-16T13:30:30;0.90;;;0.50;;
74373;SDS011;62809;51.090;-115.358;2022-10-16T13:33:35;0.90;;;0.50;;
74373;SDS011;62809;51.090;-115.358;2022-10-16T13:36:06;0.80;;;0.50;;
74373;SDS011;62809;51.090;-115.358;2022-10-16T13:42:09;0.90;;;0.60;;
74373;SDS011;62809;51.090;-115.358;2022-10-16T13:44:48;1.20;;;0.50;;
74373;SDS011;62809;51.090;-115.358;2022-10-16T13:49:45;1.00;;;0.50;;
74373;SDS011;62809;51.090;-115.358;2022-10-16T13:52:21;1.00;;;0.50;;
74373;SDS011;62809;51.090;-115.358;2022-10-16T13:54:51;1.10;;;0.50;;
74373;SDS011;62809;51.090;-115.358;2022-10-16T13:57:23;0.80;;;0.50;;
74373;SDS011;62809;51.090;-115.358;2022-10-16T13:59:51;0.70;;;0.50;;
74373;SDS011;62809;51.090;-115.358;2022-10-16T14:04:47;0.80;;;0.50;;
74373;SDS011;62809;51.090;-115.358;2022-10-16T14:07:22;1.40;;;0.50;;
74373;SDS011;62809;51.090;-115.358;2022-10-16T14:10:00;0.80;;;0.60;;
74373;SDS011;62809;51.090;-115.358;2022-10-16T14:12:31;0.60;;;0.50;;
74373;SDS011;62809;51.090;-115.358;2022-10-16T14:14:59;0.70;;;0.50;;
74373;SDS011;62809;51.090;-115.358;2022-10-16T14:17:32;0.80;;;0.50;;
74373;SDS011;62809;51.090;-115.358;2022-10-16T14:20:05;0.90;;;0.40;;
74373;SDS011;62809;51.090;-115.358;2022-10-16T14:22:42;0.60;;;0.50;;
74373;SDS011;62809;51.090;-115.358;2022-10-16T14:25:25;0.90;;;0.50;;
74373;SDS011;62809;51.090;-115.358;2022-10-16T14:30:56;1.30;;;0.60;;
74373;SDS011;62809;51.090;-115.358;2022-10-16T14:33:33;0.90;;;0.50;;
74373;SDS011;62809;51.090;-115.358;2022-10-16T14:36:13;0.60;;;0.40;;
74373;SDS011;62809;51.090;-115.358;2022-10-16T14:38:53;0.90;;;0.60;;
74373;SDS011;62809;51.090;-115.358;2022-10-16T14:41:29;0.70;;;0.50;;
74373;SDS011;62809;51.090;-115.358;2022-10-16T14:44:02;0.90;;;0.60;;
74373;SDS011;62809;51.090;-115.358;2022-10-16T14:46:40;1.00;;;0.50;;
74373;SDS011;62809;51.090;-115.358;2022-10-16T14:51:39;0.90;;;0.50;;
74373;SDS011;62809;51.090;-115.358;2022-10-16T14:54:10;1.00;;;0.50;;
74373;SDS011;62809;51.090;-115.358;2022-10-16T14:59:24;1.00;;;0.50;;
74373;SDS011;62809;51.090;-115.358;2022-10-16T15:02:01;1.10;;;0.50;;
74373;SDS011;62809;51.090;-115.358;2022-10-16T15:04:55;0.80;;;0.50;;
74373;SDS011;62809;51.090;-115.358;2022-10-16T15:07:24;0.70;;;0.50;;
74373;SDS011;62809;51.090;-115.358;2022-10-16T15:09:54;0.70;;;0.40;;
74373;SDS011;62809;51.090;-115.358;2022-10-16T15:12:23;0.90;;;0.50;;
74373;SDS011;62809;51.090;-115.358;2022-10-16T15:14:51;0.90;;;0.50;;
74373;SDS011;62809;51.090;-115.358;2022-10-16T15:17:18;0.70;;;0.50;;
74373;SDS011;62809;51.090;-115.358;2022-10-16T15:19:47;0.90;;;0.50;;
74373;SDS011;62809;51.090;-115.358;2022-10-16T15:22:15;0.70;;;0.50;;
74373;SDS011;62809;51.090;-115.358;2022-10-16T15:24:43;1.10;;;0.50;;
74373;SDS011;62809;51.090;-115.358;2022-10-16T15:27:12;0.70;;;0.50;;
74373;SDS011;62809;51.090;-115.358;2022-10-16T15:29:40;0.60;;;0.40;;
74373;SDS011;62809;51.090;-115.358;2022-10-16T15:32:10;0.50;;;0.40;;
74373;SDS011;62809;51.090;-115.358;2022-10-16T15:34:37;1.30;;;0.60;;
74373;SDS011;62809;51.090;-115.358;2022-10-16T15:37:05;1.10;;;0.60;;
74373;SDS011;62809;51.090;-115.358;2022-10-16T15:39:33;1.10;;;0.40;;
74373;SDS011;62809;51.090;-115.358;2022-10-16T15:42:00;1.30;;;0.50;;
74373;SDS011;62809;51.090;-115.358;2022-10-16T15:44:27;1.40;;;0.50;;
74373;SDS011;62809;51.090;-115.358;2022-10-16T15:46:56;0.80;;;0.50;;
74373;SDS011;62809;51.090;-115.358;2022-10-16T15:49:23;0.70;;;0.40;;
74373;SDS011;62809;51.090;-115.358;2022-10-16T15:51:51;1.20;;;0.50;;
74373;SDS011;62809;51.090;-115.358;2022-10-16T15:54:20;1.10;;;0.50;;
74373;SDS011;62809;51.090;-115.358;2022-10-16T15:56:49;1.10;;;0.60;;
74373;SDS011;62809;51.090;-115.358;2022-10-16T15:59:16;0.70;;;0.50;;
74373;SDS011;62809;51.090;-115.358;2022-10-16T16:01:45;0.70;;;0.40;;
74373;SDS011;62809;51.090;-115.358;2022-10-16T16:04:12;1.10;;;0.50;;
74373;SDS011;62809;51.090;-115.358;2022-10-16T16:06:39;1.10;;;0.50;;
74373;SDS011;62809;51.090;-115.358;2022-10-16T16:09:11;0.90;;;0.50;;
74373;SDS011;62809;51.090;-115.358;2022-10-16T16:11:43;1.50;;;0.70;;
74373;SDS011;62809;51.090;-115.358;2022-10-16T16:14:12;0.80;;;0.50;;
74373;SDS011;62809;51.090;-115.358;2022-10-16T16:16:41;0.80;;;0.40;;
74373;SDS011;62809;51.090;-115.358;2022-10-16T16:19:09;2.10;;;0.60;;
74373;SDS011;62809;51.090;-115.358;2022-10-16T16:21:36;0.90;;;0.60;;
74373;SDS011;62809;51.090;-115.358;2022-10-16T16:24:05;0.50;;;0.50;;
74373;SDS011;62809;51.090;-115.358;2022-10-16T16:26:34;0.90;;;0.40;;
74373;SDS011;62809;51.090;-115.358;2022-10-16T16:29:05;1.00;;;0.50;;
74373;SDS011;62809;51.090;-115.358;2022-10-16T16:31:32;1.40;;;0.60;;
74373;SDS011;62809;51.090;-115.358;2022-10-16T16:34:00;2.50;;;0.60;;
74373;SDS011;62809;51.090;-115.358;2022-10-16T16:36:28;1.00;;;0.50;;
74373;SDS011;62809;51.090;-115.358;2022-10-16T16:38:56;0.60;;;0.50;;
74373;SDS011;62809;51.090;-115.358;2022-10-16T16:41:28;0.70;;;0.40;;
74373;SDS011;62809;51.090;-115.358;2022-10-16T16:44:03;0.70;;;0.50;;
74373;SDS011;62809;51.090;-115.358;2022-10-16T16:46:33;1.10;;;0.60;;
74373;SDS011;62809;51.090;-115.358;2022-10-16T16:49:01;1.20;;;0.40;;
74373;SDS011;62809;51.090;-115.358;2022-10-16T16:51:29;1.00;;;0.50;;